Time;durP1;ratioP1;P1;durP2;ratioP2;P2;SDS_P1;SDS_P2;PMS_P1;PMS_P2;Temp;Humidity;BMP_temperature;BMP_pressure;BME280_temperature;BME280_humidity;BME280_pressure;Samples;Min_cycle;Max_cycle;Signal;HPM_P1;HPM_P2
2023/05/28 00:01:17;;;;;;;6.38;4.57;;;21.40;99.90;;;;;;5052392;28;20253;-76
2023/05/28 00:03:44;;;;;;;10.75;4.90;;;21.40;99.90;;;;;;5051783;28;20210;-75
2023/05/28 00:06:12;;;;;;;5.57;4.60;;;21.30;99.90;;;;;;5052484;28;20253;-75
2023/05/28 00:08:39;;;;;;;8.82;5.13;;;21.30;99.90;;;;;;5051635;28;20234;-75
2023/05/28 00:11:06;;;;;;;10.95;5.68;;;21.20;99.90;;;;;;5052125;28;20206;-75
2023/05/28 00:13:33;;;;;;;6.88;5.13;;;21.20;99.90;;;;;;5051962;28;20697;-76
2023/05/28 00:16:00;;;;;;;7.90;5.00;;;21.10;99.90;;;;;;5052127;28;20299;-76
2023/05/28 00:18:28;;;;;;;11.45;6.57;;;21.00;99.90;;;;;;5052247;28;20713;-76
2023/05/28 00:20:55;;;;;;;7.30;5.53;;;21.10;99.90;;;;;;5065841;28;20289;-76
2023/05/28 00:23:23;;;;;;;12.23;6.40;;;21.00;99.90;;;;;;5051499;28;20243;-76
2023/05/28 00:25:51;;;;;;;7.65;5.28;;;20.90;99.90;;;;;;5065148;28;20238;-76
2023/05/28 00:28:18;;;;;;;14.15;6.57;;;20.90;99.90;;;;;;5037990;28;20266;-76
2023/05/28 00:30:45;;;;;;;8.40;5.30;;;20.90;99.90;;;;;;5051706;28;20242;-78
2023/05/28 00:33:12;;;;;;;5.97;5.03;;;20.80;99.90;;;;;;5051684;28;20254;-77
2023/05/28 00:35:39;;;;;;;9.73;5.63;;;20.80;99.90;;;;;;5051621;28;20648;-77
2023/05/28 00:38:06;;;;;;;10.45;5.95;;;20.80;99.90;;;;;;5051818;28;20211;-76
2023/05/28 00:40:34;;;;;;;10.23;5.82;;;20.70;99.90;;;;;;5051897;28;20211;-76
2023/05/28 00:43:01;;;;;;;7.68;5.30;;;20.70;99.90;;;;;;5051487;28;20651;-78
2023/05/28 00:45:28;;;;;;;10.30;6.45;;;20.60;99.90;;;;;;5052300;28;20270;-77
2023/05/28 00:47:55;;;;;;;9.93;5.00;;;20.60;99.90;;;;;;5051340;28;20266;-78
2023/05/28 00:50:22;;;;;;;10.13;6.00;;;20.60;99.90;;;;;;5037622;28;20246;-74
2023/05/28 00:52:51;;;;;;;9.65;5.20;;;20.50;99.90;;;;;;5051125;28;20242;-76
2023/05/28 00:55:18;;;;;;;11.38;6.63;;;20.50;99.90;;;;;;5051211;28;20210;-78
2023/05/28 00:57:48;;;;;;;11.02;5.85;;;20.40;99.90;;;;;;5051064;28;20288;-77
2023/05/28 01:00:16;;;;;;;11.52;6.28;;;20.40;99.90;;;;;;5051361;28;20203;-77
2023/05/28 01:02:44;;;;;;;8.10;5.75;;;20.40;99.90;;;;;;5050782;28;20708;-77
2023/05/28 01:05:10;;;;;;;6.68;4.95;;;20.40;99.90;;;;;;5051826;28;20211;-78
2023/05/28 01:07:38;;;;;;;11.50;5.97;;;20.40;99.90;;;;;;5050847;28;20230;-77
2023/05/28 01:10:06;;;;;;;13.73;6.00;;;20.40;99.90;;;;;;5050907;28;20242;-77
2023/05/28 01:12:36;;;;;;;10.77;5.47;;;20.10;99.90;;;;;;5051357;28;20211;-77
2023/05/28 01:15:06;;;;;;;9.75;5.82;;;20.00;99.90;;;;;;5051515;28;20207;-77
2023/05/28 01:17:34;;;;;;;11.63;6.47;;;20.10;99.90;;;;;;5065220;28;20203;-75
2023/05/28 01:20:10;;;;;;;14.45;5.82;;;20.10;99.90;;;;;;5051077;28;20210;-77
2023/05/28 01:22:39;;;;;;;9.13;6.10;;;20.00;99.90;;;;;;5050596;28;20289;-75
2023/05/28 01:25:12;;;;;;;9.35;5.68;;;20.00;99.90;;;;;;5051169;28;20261;-77
2023/05/28 01:27:40;;;;;;;10.73;5.82;;;20.00;99.90;;;;;;5050425;28;20211;-76
2023/05/28 01:30:09;;;;;;;12.27;5.90;;;19.90;99.90;;;;;;5050965;28;20207;-75
2023/05/28 01:32:36;;;;;;;9.63;5.53;;;19.90;99.90;;;;;;5050362;28;20686;-72
2023/05/28 01:35:04;;;;;;;11.50;6.57;;;19.70;99.90;;;;;;5050609;28;20595;-73
2023/05/28 01:37:34;;;;;;;13.35;6.38;;;19.60;99.90;;;;;;5050713;28;20241;-76
2023/05/28 01:40:03;;;;;;;8.10;5.07;;;19.60;99.90;;;;;;5051083;28;20210;-77
2023/05/28 01:42:34;;;;;;;8.57;6.55;;;19.50;99.90;;;;;;5051031;28;20207;-71
2023/05/28 01:45:01;;;;;;;9.82;4.88;;;19.40;99.90;;;;;;5050774;28;20206;-73
2023/05/28 01:47:30;;;;;;;11.68;5.68;;;19.40;99.90;;;;;;5050621;28;20238;-72
2023/05/28 01:49:57;;;;;;;12.48;5.75;;;19.30;99.90;;;;;;5032515;28;20270;-72
2023/05/28 01:52:24;;;;;;;7.93;5.43;;;19.20;99.90;;;;;;5050389;28;20643;-73
2023/05/28 01:54:51;;;;;;;11.48;7.30;;;19.30;99.90;;;;;;5049946;28;20687;-73
2023/05/28 01:57:18;;;;;;;12.68;6.18;;;19.20;99.90;;;;;;5050650;28;20241;-74
2023/05/28 01:59:46;;;;;;;14.10;5.55;;;19.20;99.90;;;;;;5050083;28;20246;-73
2023/05/28 02:02:13;;;;;;;9.88;6.18;;;19.10;99.90;;;;;;5050039;28;20639;-74
2023/05/28 02:04:40;;;;;;;7.72;5.50;;;19.10;99.90;;;;;;5050207;28;20245;-73
2023/05/28 02:07:07;;;;;;;8.95;5.63;;;19.10;99.90;;;;;;5050028;28;20705;-71
2023/05/28 02:09:34;;;;;;;10.25;5.72;;;19.20;99.90;;;;;;5050409;28;20260;-72
2023/05/28 02:12:02;;;;;;;7.90;4.90;;;19.10;99.90;;;;;;5050504;28;20231;-73
2023/05/28 02:14:29;;;;;;;11.50;5.82;;;19.10;99.90;;;;;;5050677;28;20206;-73
2023/05/28 02:16:58;;;;;;;8.32;5.63;;;19.10;99.90;;;;;;5049928;28;20242;-73
2023/05/28 02:19:25;;;;;;;11.82;5.53;;;19.10;99.90;;;;;;5050234;28;20222;-74
2023/05/28 02:21:53;;;;;;;10.15;4.60;;;19.00;99.90;;;;;;5049755;28;20238;-74
2023/05/28 02:24:20;;;;;;;13.82;5.93;;;19.00;99.90;;;;;;5049936;28;20670;-74
2023/05/28 02:26:47;;;;;;;8.88;6.28;;;18.90;99.90;;;;;;5049790;28;20241;-72
2023/05/28 02:29:14;;;;;;;7.63;5.35;;;18.90;99.90;;;;;;5038973;28;20322;-74
2023/05/28 02:31:42;;;;;;;13.43;7.53;;;18.80;99.90;;;;;;5029890;28;20687;-73
2023/05/28 02:34:10;;;;;;;9.88;5.03;;;18.80;99.90;;;;;;5035899;28;20250;-73
2023/05/28 02:36:37;;;;;;;10.02;5.97;;;18.80;99.90;;;;;;5048179;28;20296;-73
2023/05/28 02:39:04;;;;;;;6.40;5.28;;;18.80;99.90;;;;;;5037906;28;20294;-73
2023/05/28 02:41:31;;;;;;;10.40;5.40;;;18.70;99.90;;;;;;5050291;28;20249;-75
2023/05/28 02:43:58;;;;;;;8.88;5.68;;;18.70;99.90;;;;;;5049758;28;20207;-74
2023/05/28 02:46:25;;;;;;;9.00;5.78;;;18.70;99.90;;;;;;5039653;28;20231;-75
2023/05/28 02:48:52;;;;;;;12.55;6.07;;;18.70;99.90;;;;;;5051324;28;20317;-74
2023/05/28 02:51:20;;;;;;;12.05;9.45;;;18.60;99.90;;;;;;5053663;28;20237;-73
2023/05/28 02:53:47;;;;;;;7.85;5.50;;;18.70;99.90;;;;;;5053446;28;20249;-72
2023/05/28 02:56:14;;;;;;;12.80;5.35;;;18.60;99.90;;;;;;5053405;28;20253;-73
2023/05/28 02:58:41;;;;;;;6.43;5.45;;;18.60;99.90;;;;;;5053661;28;20242;-72
2023/05/28 03:01:08;;;;;;;7.55;6.28;;;18.60;99.90;;;;;;5053601;28;20245;-73
2023/05/28 03:03:35;;;;;;;12.48;6.30;;;18.50;99.90;;;;;;5041006;28;20247;-73
2023/05/28 03:06:02;;;;;;;7.90;5.57;;;18.50;99.90;;;;;;5052363;28;20206;-73
2023/05/28 03:08:30;;;;;;;11.75;6.47;;;18.50;99.90;;;;;;5053699;28;20269;-73
2023/05/28 03:10:57;;;;;;;10.43;5.82;;;18.40;99.90;;;;;;5052827;28;20327;-73
2023/05/28 03:13:24;;;;;;;11.35;5.97;;;18.40;99.90;;;;;;5053716;28;20289;-72
2023/05/28 03:15:51;;;;;;;10.15;5.28;;;18.40;99.90;;;;;;5053064;28;20203;-73
2023/05/28 03:18:18;;;;;;;11.63;7.43;;;18.40;99.90;;;;;;5053469;28;20681;-72
2023/05/28 03:20:45;;;;;;;9.30;6.13;;;18.30;99.90;;;;;;5052700;28;20203;-72
2023/05/28 03:23:12;;;;;;;10.85;6.22;;;18.30;99.90;;;;;;5053274;28;20238;-72
2023/05/28 03:25:40;;;;;;;11.07;5.63;;;18.30;99.90;;;;;;5053027;28;20245;-72
2023/05/28 03:28:07;;;;;;;11.18;6.05;;;18.10;99.90;;;;;;5053034;28;20202;-72
2023/05/28 03:30:34;;;;;;;11.00;6.82;;;18.20;99.90;;;;;;5053310;28;20246;-72
2023/05/28 03:33:01;;;;;;;11.07;5.43;;;18.00;99.90;;;;;;5053220;28;20225;-73
2023/05/28 03:35:28;;;;;;;9.73;6.00;;;18.00;99.90;;;;;;5044644;28;20589;-72
2023/05/28 03:37:55;;;;;;;9.65;6.03;;;18.00;99.90;;;;;;5033349;28;20239;-72
2023/05/28 03:40:22;;;;;;;10.10;5.93;;;18.00;99.90;;;;;;5053044;28;20632;-72
2023/05/28 03:42:50;;;;;;;9.00;5.07;;;18.00;99.90;;;;;;5049954;28;20638;-73
2023/05/28 03:45:17;;;;;;;8.70;5.28;;;18.00;99.90;;;;;;5052854;28;20245;-74
2023/05/28 03:47:44;;;;;;;9.60;5.78;;;18.00;99.90;;;;;;5052214;28;20238;-74
2023/05/28 03:50:11;;;;;;;9.05;6.05;;;18.00;99.90;;;;;;5052545;28;20239;-73
2023/05/28 03:52:38;;;;;;;8.38;5.47;;;18.00;99.90;;;;;;5052448;28;20234;-72
2023/05/28 03:55:06;;;;;;;10.70;5.22;;;18.00;99.90;;;;;;5052410;28;20210;-73
2023/05/28 03:57:33;;;;;;;7.90;5.72;;;17.90;99.90;;;;;;5051563;28;20238;-73
2023/05/28 04:00:02;;;;;;;13.35;6.20;;;18.00;99.90;;;;;;5052379;28;20682;-73
2023/05/28 04:02:29;;;;;;;8.50;6.05;;;17.80;99.90;;;;;;5050890;28;20214;-73
2023/05/28 04:04:56;;;;;;;14.18;5.90;;;17.80;99.90;;;;;;5051894;28;21063;-73
2023/05/28 04:07:23;;;;;;;15.10;7.68;;;17.70;99.90;;;;;;5052358;28;20772;-73
2023/05/28 04:09:51;;;;;;;11.13;5.25;;;17.50;99.90;;;;;;5051782;28;20235;-73
2023/05/28 04:12:18;;;;;;;10.00;5.35;;;17.60;99.90;;;;;;5052323;28;20583;-72
2023/05/28 04:14:45;;;;;;;9.88;5.47;;;17.60;99.90;;;;;;5051977;28;20245;-72
2023/05/28 04:17:13;;;;;;;13.35;6.10;;;17.40;99.90;;;;;;5051920;28;20253;-72
2023/05/28 04:19:40;;;;;;;10.18;5.97;;;17.50;99.90;;;;;;5051339;28;20452;-72
2023/05/28 04:22:07;;;;;;;11.40;6.95;;;17.50;99.90;;;;;;5052136;28;20207;-72
2023/05/28 04:24:34;;;;;;;13.45;5.90;;;17.40;99.90;;;;;;5052036;28;20583;-73
2023/05/28 04:27:02;;;;;;;9.55;6.20;;;17.30;99.90;;;;;;5052240;28;20305;-72
2023/05/28 04:29:29;;;;;;;8.88;5.32;;;17.40;99.90;;;;;;5051690;28;20315;-73
2023/05/28 04:31:57;;;;;;;7.68;5.28;;;17.40;99.90;;;;;;5046105;28;20226;-72
2023/05/28 04:34:25;;;;;;;10.52;5.45;;;17.50;99.90;;;;;;5040178;28;20207;-73
2023/05/28 04:36:53;;;;;;;7.22;4.82;;;17.40;99.90;;;;;;5045546;28;20234;-73
2023/05/28 04:39:20;;;;;;;6.30;5.07;;;17.50;99.90;;;;;;5044037;28;20242;-73
2023/05/28 04:41:48;;;;;;;14.40;6.32;;;17.60;99.90;;;;;;5051325;28;20199;-73
2023/05/28 04:44:16;;;;;;;13.98;7.13;;;17.60;99.90;;;;;;5052187;28;20207;-73
2023/05/28 04:46:43;;;;;;;8.63;5.13;;;17.60;99.90;;;;;;5050607;28;20689;-72
2023/05/28 04:49:10;;;;;;;8.98;5.70;;;17.70;99.90;;;;;;5051411;28;20684;-72
2023/05/28 04:51:39;;;;;;;6.68;5.20;;;17.60;99.90;;;;;;5050766;28;20233;-73
2023/05/28 04:54:06;;;;;;;8.95;6.20;;;17.60;99.90;;;;;;5051575;28;20211;-73
2023/05/28 04:56:33;;;;;;;10.10;5.80;;;17.60;99.90;;;;;;5051601;28;20257;-72
2023/05/28 04:59:00;;;;;;;8.57;6.90;;;17.60;99.90;;;;;;5050572;28;20238;-72
2023/05/28 05:01:27;;;;;;;16.25;6.55;;;17.60;99.90;;;;;;5056255;28;20665;-72
2023/05/28 05:03:55;;;;;;;11.07;7.28;;;17.50;99.90;;;;;;5051252;28;20210;-73
2023/05/28 05:06:21;;;;;;;13.32;5.47;;;17.70;99.90;;;;;;5050608;28;20209;-72
2023/05/28 05:08:50;;;;;;;10.38;5.90;;;17.80;99.90;;;;;;5050112;28;20693;-72
2023/05/28 05:11:17;;;;;;;10.68;5.97;;;17.80;99.90;;;;;;5051184;28;20237;-72
2023/05/28 05:13:44;;;;;;;8.02;5.50;;;17.90;99.90;;;;;;5050333;28;20261;-73
2023/05/28 05:16:11;;;;;;;12.13;6.28;;;17.90;99.90;;;;;;5051344;28;20243;-72
2023/05/28 05:18:38;;;;;;;10.55;5.32;;;17.90;99.90;;;;;;5050747;28;20230;-72
2023/05/28 05:21:06;;;;;;;8.52;5.90;;;17.90;99.90;;;;;;5050886;28;20296;-72
2023/05/28 05:23:33;;;;;;;9.57;5.90;;;18.00;99.90;;;;;;5050600;28;20207;-73
2023/05/28 05:26:01;;;;;;;10.20;5.85;;;17.90;99.90;;;;;;5050930;28;20239;-72
2023/05/28 05:28:28;;;;;;;11.02;6.88;;;17.90;99.90;;;;;;5050235;28;20238;-72
2023/05/28 05:30:55;;;;;;;11.50;6.80;;;18.00;99.90;;;;;;5042691;28;20263;-72
2023/05/28 05:33:22;;;;;;;12.85;6.50;;;18.10;99.90;;;;;;5050750;28;20211;-72
2023/05/28 05:35:49;;;;;;;9.70;7.60;;;18.20;99.90;;;;;;5050243;28;20206;-71
2023/05/28 05:38:16;;;;;;;8.30;5.25;;;18.00;99.90;;;;;;5036818;28;20213;-72
2023/05/28 05:40:43;;;;;;;14.63;6.15;;;18.10;99.90;;;;;;5050051;28;20689;-72
2023/05/28 05:43:12;;;;;;;9.27;5.22;;;18.10;99.90;;;;;;5050288;28;20239;-72
2023/05/28 05:45:38;;;;;;;9.52;6.65;;;18.10;99.90;;;;;;5050060;28;20250;-72
2023/05/28 05:48:06;;;;;;;9.50;5.97;;;18.10;99.90;;;;;;5050530;28;20234;-71
2023/05/28 05:50:33;;;;;;;11.00;6.22;;;18.20;99.90;;;;;;5050409;28;20310;-73
2023/05/28 05:53:01;;;;;;;13.65;5.97;;;18.10;99.90;;;;;;5050430;28;20261;-71
2023/05/28 05:55:28;;;;;;;13.60;7.18;;;18.30;99.90;;;;;;5049107;28;20238;-74
2023/05/28 05:57:58;;;;;;;11.00;5.75;;;18.40;99.90;;;;;;5039711;28;20215;-72
2023/05/28 06:00:26;;;;;;;10.60;6.15;;;18.40;99.90;;;;;;5050129;28;20206;-72
2023/05/28 06:02:53;;;;;;;13.65;8.23;;;18.60;99.90;;;;;;5048369;28;20260;-75
2023/05/28 06:05:20;;;;;;;11.02;8.15;;;18.70;99.90;;;;;;5061497;28;20233;-75
2023/05/28 06:07:47;;;;;;;8.85;7.10;;;18.90;99.90;;;;;;5049126;28;20242;-75
2023/05/28 06:10:14;;;;;;;8.35;5.95;;;18.90;99.90;;;;;;5049776;28;20242;-76
2023/05/28 06:12:41;;;;;;;9.30;6.32;;;18.80;99.90;;;;;;5049065;28;20202;-74
2023/05/28 06:15:08;;;;;;;9.68;5.93;;;18.90;99.90;;;;;;5050040;28;20226;-75
2023/05/28 06:17:37;;;;;;;13.30;6.63;;;18.90;99.90;;;;;;5049809;28;20234;-72
2023/05/28 06:20:06;;;;;;;9.20;5.85;;;19.10;99.90;;;;;;5050584;28;20241;-74
2023/05/28 06:22:33;;;;;;;10.93;6.80;;;19.20;99.90;;;;;;5053213;28;20260;-75
2023/05/28 06:25:01;;;;;;;8.10;5.68;;;19.30;99.90;;;;;;5054246;28;20206;-74
2023/05/28 06:27:28;;;;;;;10.00;5.13;;;19.30;99.90;;;;;;5053935;28;20210;-75
2023/05/28 06:29:55;;;;;;;12.60;7.68;;;19.40;99.90;;;;;;5053978;28;20698;-76
2023/05/28 06:32:22;;;;;;;12.07;5.97;;;19.50;99.90;;;;;;5054163;28;20206;-75
2023/05/28 06:34:50;;;;;;;11.48;5.55;;;19.60;99.90;;;;;;5053643;28;20724;-74
2023/05/28 06:37:17;;;;;;;10.02;5.53;;;19.60;99.90;;;;;;5045165;28;20209;-74
2023/05/28 06:39:44;;;;;;;10.80;5.13;;;19.60;99.90;;;;;;5046775;28;20238;-75
2023/05/28 06:42:11;;;;;;;10.68;5.63;;;19.80;99.90;;;;;;5053857;28;20636;-78
2023/05/28 06:44:38;;;;;;;13.18;4.70;;;19.90;99.90;;;;;;5053907;28;20242;-77
2023/05/28 06:47:05;;;;;;;8.85;5.25;;;20.10;99.90;;;;;;5054219;28;20243;-76
2023/05/28 06:49:32;;;;;;;9.52;5.22;;;20.20;99.90;;;;;;5053753;28;20258;-74
2023/05/28 06:52:01;;;;;;;15.75;5.85;;;20.30;99.90;;;;;;5052054;28;20239;-72
2023/05/28 06:54:28;;;;;;;10.18;5.32;;;20.40;99.90;;;;;;5048641;28;20649;-74
2023/05/28 06:56:55;;;;;;;8.65;5.88;;;20.60;99.90;;;;;;5053181;28;20245;-73
2023/05/28 06:59:22;;;;;;;10.45;5.63;;;21.00;99.90;;;;;;5053242;28;20637;-74
2023/05/28 07:01:48;;;;;;;9.20;5.55;;;20.90;99.90;;;;;;5053147;28;20528;-76
2023/05/28 07:04:15;;;;;;;12.20;5.57;;;21.00;99.90;;;;;;5053411;28;20662;-75
2023/05/28 07:06:43;;;;;;;10.27;5.70;;;21.00;99.90;;;;;;5053252;28;20239;-76
2023/05/28 07:09:11;;;;;;;13.85;5.60;;;21.10;99.90;;;;;;5053041;28;20569;-74
2023/05/28 07:11:38;;;;;;;13.32;5.95;;;21.10;99.90;;;;;;5047022;28;20262;-74
2023/05/28 07:14:05;;;;;;;8.40;5.43;;;21.20;99.90;;;;;;5051609;28;20206;-75
2023/05/28 07:16:32;;;;;;;9.38;5.53;;;21.30;99.90;;;;;;5052720;28;20203;-76
2023/05/28 07:18:59;;;;;;;9.73;5.72;;;21.40;99.90;;;;;;5052689;28;20238;-75
2023/05/28 07:21:26;;;;;;;12.50;5.85;;;21.50;99.90;;;;;;5053047;28;20242;-76
2023/05/28 07:23:53;;;;;;;10.68;4.93;;;21.50;99.90;;;;;;5052521;28;20207;-76
2023/05/28 07:26:21;;;;;;;14.65;5.43;;;21.90;99.90;;;;;;5053328;28;20207;-75
2023/05/28 07:28:48;;;;;;;10.38;5.47;;;21.90;99.90;;;;;;5052747;28;20211;-75
2023/05/28 07:31:15;;;;;;;11.95;5.63;;;22.10;99.90;;;;;;5052573;28;20722;-76
2023/05/28 07:33:42;;;;;;;10.10;4.72;;;22.20;99.90;;;;;;5051965;28;20242;-75
2023/05/28 07:36:10;;;;;;;11.95;5.93;;;22.30;99.90;;;;;;5052569;28;20245;-75
2023/05/28 07:38:38;;;;;;;7.07;4.32;;;22.40;99.90;;;;;;5044228;28;20295;-74
2023/05/28 07:41:05;;;;;;;8.63;5.20;;;22.50;99.90;;;;;;5052883;28;20231;-73
2023/05/28 07:43:33;;;;;;;16.98;4.90;;;22.60;99.90;;;;;;5052204;28;20670;-75
2023/05/28 07:46:00;;;;;;;13.40;5.70;;;22.70;99.90;;;;;;5049251;28;20235;-75
2023/05/28 07:48:27;;;;;;;8.05;6.32;;;22.80;99.90;;;;;;5050862;28;20207;-75
2023/05/28 07:50:54;;;;;;;7.32;5.22;;;22.90;99.90;;;;;;5051587;28;20729;-74
2023/05/28 07:53:21;;;;;;;8.10;4.80;;;23.00;99.90;;;;;;5051967;28;20237;-72
2023/05/28 07:55:47;;;;;;;11.15;6.22;;;23.10;99.90;;;;;;5050827;28;20246;-73
2023/05/28 07:58:14;;;;;;;10.77;5.43;;;23.30;99.90;;;;;;5052152;28;20659;-72
2023/05/28 08:00:44;;;;;;;16.98;6.45;;;24.10;99.90;;;;;;5052054;28;20211;-73
2023/05/28 08:03:11;;;;;;;12.57;4.95;;;23.90;99.90;;;;;;5052158;28;20700;-74
2023/05/28 08:05:38;;;;;;;12.52;5.38;;;23.70;99.90;;;;;;5049333;28;20733;-73
2023/05/28 08:08:06;;;;;;;9.00;4.88;;;23.70;99.90;;;;;;5051958;28;20246;-75
2023/05/28 08:10:32;;;;;;;10.98;6.03;;;23.80;99.90;;;;;;5048994;28;20733;-74
2023/05/28 08:12:59;;;;;;;13.45;7.25;;;24.00;99.90;;;;;;5052122;28;20257;-74
2023/05/28 08:15:26;;;;;;;8.82;5.60;;;23.90;99.90;;;;;;5051874;28;20675;-75
2023/05/28 08:17:55;;;;;;;10.10;4.35;;;24.00;99.90;;;;;;5051844;28;20249;-74
2023/05/28 08:20:22;;;;;;;9.50;5.85;;;24.20;99.90;;;;;;5052249;28;20234;-75
2023/05/28 08:22:49;;;;;;;6.53;4.50;;;24.30;99.90;;;;;;5051450;28;20218;-74
2023/05/28 08:25:16;;;;;;;12.95;6.45;;;24.60;99.90;;;;;;5051858;28;20206;-75
2023/05/28 08:27:43;;;;;;;11.90;5.60;;;24.80;99.90;;;;;;5051645;28;20241;-76
2023/05/28 08:30:11;;;;;;;8.93;5.25;;;24.70;99.90;;;;;;5051658;28;20258;-75
2023/05/28 08:32:38;;;;;;;10.93;5.00;;;24.70;99.90;;;;;;5047957;28;20313;-72
2023/05/28 08:35:07;;;;;;;9.10;4.47;;;24.80;99.90;;;;;;5051792;28;20682;-76
2023/05/28 08:37:34;;;;;;;10.43;5.72;;;24.80;99.90;;;;;;5039943;28;20243;-76
2023/05/28 08:40:01;;;;;;;7.85;4.45;;;25.10;99.90;;;;;;5048834;28;20213;-76
2023/05/28 08:42:28;;;;;;;7.80;4.65;;;25.20;99.90;;;;;;5051742;28;20222;-76
2023/05/28 08:44:55;;;;;;;11.07;6.00;;;25.50;99.90;;;;;;5050720;28;20207;-75
2023/05/28 08:47:23;;;;;;;10.88;5.28;;;25.40;99.90;;;;;;5051746;28;20234;-76
2023/05/28 08:49:53;;;;;;;12.02;4.70;;;25.70;99.90;;;;;;5050444;28;20296;-76
2023/05/28 08:52:23;;;;;;;12.55;5.78;;;25.50;99.90;;;;;;5051411;28;20213;-77
2023/05/28 08:54:50;;;;;;;8.70;5.28;;;25.90;99.90;;;;;;5051003;28;20246;-77
2023/05/28 08:57:18;;;;;;;11.85;6.70;;;26.00;99.90;;;;;;5051676;28;20255;-77
2023/05/28 08:59:46;;;;;;;10.25;5.07;;;26.00;99.90;;;;;;5051079;28;20249;-76
2023/05/28 09:02:13;;;;;;;6.55;5.20;;;26.30;99.90;;;;;;5051053;28;20752;-76
2023/05/28 09:04:45;;;;;;;6.65;4.07;;;26.80;99.90;;;;;;5050487;28;20249;-76
2023/05/28 09:07:12;;;;;;;9.70;5.38;;;27.30;99.90;;;;;;5051257;28;20271;-76
2023/05/28 09:09:41;;;;;;;9.15;4.53;;;27.20;99.90;;;;;;5050597;28;20250;-73
2023/05/28 09:12:12;;;;;;;8.27;4.95;;;27.20;99.90;;;;;;5044169;28;20318;-77
2023/05/28 09:14:40;;;;;;;17.85;5.25;;;26.90;99.90;;;;;;5042464;28;20238;-75
2023/05/28 09:17:08;;;;;;;15.02;5.97;;;27.00;99.90;;;;;;5050961;28;20249;-74
2023/05/28 09:19:35;;;;;;;13.43;4.60;;;27.30;99.90;;;;;;5050532;28;20211;-73
2023/05/28 09:22:03;;;;;;;10.48;4.60;;;27.60;99.90;;;;;;5049931;28;20410;-72
2023/05/28 09:24:31;;;;;;;11.45;5.22;;;29.10;99.90;;;;;;5048632;28;20556;-74
2023/05/28 09:27:00;;;;;;;8.70;5.18;;;29.70;99.90;;;;;;5050870;28;20700;-76
2023/05/28 09:29:27;;;;;;;12.02;6.13;;;31.00;99.90;;;;;;5050688;28;20293;-78
2023/05/28 09:31:59;;;;;;;13.95;7.57;;;32.90;99.90;;;;;;5050631;28;20258;-76
2023/05/28 09:34:28;;;;;;;11.18;5.95;;;34.10;99.90;;;;;;5050431;28;20210;-73
2023/05/28 09:37:00;;;;;;;13.02;5.70;;;34.80;99.90;;;;;;5044543;28;20705;-74
2023/05/28 09:39:27;;;;;;;10.43;5.43;;;37.80;99.90;;;;;;5043756;28;20202;-74
2023/05/28 09:42:05;;;;;;;8.50;5.03;;;39.50;99.90;;;;;;5049555;28;20198;-72
2023/05/28 09:44:33;;;;;;;14.02;4.90;;;38.40;99.90;;;;;;5049505;28;20217;-74
2023/05/28 09:47:00;;;;;;;14.25;6.18;;;39.40;99.90;;;;;;5050001;28;20237;-74
2023/05/28 09:49:29;;;;;;;10.95;5.38;;;40.00;99.90;;;;;;5050424;28;20238;-74
2023/05/28 09:51:59;;;;;;;9.85;4.95;;;42.10;99.90;;;;;;5050405;28;20234;-73
2023/05/28 09:54:29;;;;;;;8.98;5.38;;;41.30;99.90;;;;;;5050451;28;20216;-78
2023/05/28 09:57:02;;;;;;;13.90;5.57;;;41.60;99.90;;;;;;5049301;28;20210;-78
2023/05/28 09:59:31;;;;;;;9.38;5.90;;;41.20;99.90;;;;;;5050251;28;20209;-78
2023/05/28 10:02:01;;;;;;;7.55;5.35;;;39.20;99.90;;;;;;5049928;28;20245;-76
2023/05/28 10:04:35;;;;;;;11.63;5.93;;;39.70;99.90;;;;;;5050541;28;20241;-76
2023/05/28 10:07:04;;;;;;;12.73;5.20;;;41.00;99.90;;;;;;5050253;28;20217;-76
2023/05/28 10:09:33;;;;;;;11.40;5.35;;;39.50;99.90;;;;;;5049863;28;20231;-76
2023/05/28 10:12:09;;;;;;;7.13;4.25;;;41.30;99.90;;;;;;5050054;28;20782;-77
2023/05/28 10:14:37;;;;;;;8.25;5.35;;;41.90;99.90;;;;;;5050278;28;20636;-76
2023/05/28 10:17:04;;;;;;;9.60;6.25;;;41.00;99.90;;;;;;5050179;28;20205;-76
2023/05/28 10:19:31;;;;;;;12.45;5.85;;;41.00;99.90;;;;;;5049838;28;20701;-77
2023/05/28 10:21:59;;;;;;;9.38;5.28;;;42.90;99.90;;;;;;5050106;28;20237;-76
2023/05/28 10:24:26;;;;;;;12.35;4.63;;;39.30;99.90;;;;;;5050189;28;20241;-74
2023/05/28 10:26:54;;;;;;;9.02;6.30;;;41.70;99.90;;;;;;5049980;28;20244;-74
2023/05/28 10:29:22;;;;;;;13.63;5.05;;;38.90;99.90;;;;;;5050109;28;20233;-75
2023/05/28 10:31:59;;;;;;;8.60;5.03;;;35.70;99.90;;;;;;5049327;28;20291;-75
2023/05/28 10:34:30;;;;;;;9.35;6.30;;;32.90;99.90;;;;;;5050107;28;20669;-75
2023/05/28 10:36:57;;;;;;;7.63;5.93;;;31.10;99.90;;;;;;5043851;28;20215;-77
2023/05/28 10:39:24;;;;;;;11.75;6.20;;;30.60;99.90;;;;;;5042719;28;20279;-75
2023/05/28 10:41:54;;;;;;;8.02;5.80;;;29.90;99.90;;;;;;5049557;28;20228;-77
2023/05/28 10:44:23;;;;;;;7.45;6.07;;;29.80;99.90;;;;;;5050060;28;20231;-76
2023/05/28 10:46:56;;;;;;;12.30;6.13;;;29.30;99.90;;;;;;5049351;28;20234;-77
2023/05/28 10:49:23;;;;;;;11.77;6.50;;;29.40;99.90;;;;;;5050091;28;20292;-77
2023/05/28 10:51:57;;;;;;;11.13;6.80;;;29.60;99.90;;;;;;5049456;28;20248;-76
2023/05/28 10:54:41;;;;;;;7.70;5.05;;;29.80;99.90;;;;;;5050081;28;20257;-77
2023/05/28 10:57:12;;;;;;;15.23;6.55;;;29.90;99.90;;;;;;5050241;28;20217;-75
2023/05/28 10:59:45;;;;;;;9.32;7.13;;;29.90;99.90;;;;;;5049817;28;20248;-76
2023/05/28 11:02:12;;;;;;;11.35;5.97;;;29.60;99.90;;;;;;5049460;28;20217;-74
2023/05/28 11:04:40;;;;;;;10.95;6.38;;;29.60;99.90;;;;;;5049829;28;20716;-75
2023/05/28 11:07:08;;;;;;;7.13;5.65;;;29.50;99.90;;;;;;5050671;28;20663;-77
2023/05/28 11:09:36;;;;;;;10.75;5.85;;;29.70;99.90;;;;;;5053191;28;20209;-74
2023/05/28 11:12:03;;;;;;;8.60;5.40;;;29.60;99.90;;;;;;5053123;28;20265;-75
2023/05/28 11:14:35;;;;;;;13.02;5.80;;;29.30;99.90;;;;;;5053056;28;20246;-72
2023/05/28 11:17:08;;;;;;;9.95;4.88;;;29.50;99.90;;;;;;5053410;28;20216;-76
2023/05/28 11:19:43;;;;;;;11.45;5.90;;;29.50;99.90;;;;;;5053034;28;20305;-74
2023/05/28 11:22:11;;;;;;;8.23;4.93;;;29.30;99.90;;;;;;5053365;28;20562;-73
2023/05/28 11:24:55;;;;;;;8.85;5.95;;;29.30;99.90;;;;;;5053420;28;20214;-76
2023/05/28 11:27:22;;;;;;;12.27;5.72;;;28.70;99.90;;;;;;5051662;28;20203;-74
2023/05/28 11:29:50;;;;;;;11.90;5.72;;;29.10;99.90;;;;;;5052630;28;20207;-76
2023/05/28 11:32:20;;;;;;;11.63;5.75;;;29.20;99.90;;;;;;5053244;28;20242;-73
2023/05/28 11:34:49;;;;;;;9.57;5.10;;;29.20;99.90;;;;;;5039105;28;20207;-74
2023/05/28 11:37:17;;;;;;;7.22;5.10;;;29.50;99.90;;;;;;5053280;28;20222;-75
2023/05/28 11:39:50;;;;;;;11.68;5.50;;;29.50;99.90;;;;;;5052619;28;20235;-75
2023/05/28 11:42:17;;;;;;;10.25;6.18;;;29.10;99.90;;;;;;5052947;28;20214;-75
2023/05/28 11:44:45;;;;;;;8.35;5.78;;;29.60;99.90;;;;;;5052335;28;20214;-74
2023/05/28 11:47:13;;;;;;;20.35;6.20;;;29.70;99.90;;;;;;5053218;28;20298;-76
2023/05/28 11:49:42;;;;;;;10.90;3.88;;;29.90;99.90;;;;;;5052649;28;20245;-75
2023/05/28 11:52:12;;;;;;;11.00;4.60;;;29.80;99.90;;;;;;5052926;28;20245;-75
2023/05/28 11:54:40;;;;;;;10.88;5.60;;;29.60;99.90;;;;;;5052566;28;20209;-76
2023/05/28 11:57:07;;;;;;;7.53;5.38;;;29.50;99.90;;;;;;5052667;28;20210;-77
2023/05/28 11:59:34;;;;;;;13.43;5.28;;;29.30;99.90;;;;;;5051902;28;20264;-75
2023/05/28 12:02:12;;;;;;;5.93;3.90;;;29.50;99.90;;;;;;5052200;28;20238;-76
2023/05/28 12:04:39;;;;;;;8.18;4.05;;;29.60;99.90;;;;;;5052574;28;20246;-74
2023/05/28 12:07:07;;;;;;;9.63;3.78;;;29.40;99.90;;;;;;5052521;28;20238;-74
2023/05/28 12:09:35;;;;;;;5.78;4.18;;;29.50;99.90;;;;;;5052163;28;20736;-73
2023/05/28 12:12:06;;;;;;;8.68;4.75;;;29.60;99.90;;;;;;5052023;28;20313;-76
2023/05/28 12:14:33;;;;;;;7.00;4.53;;;29.90;99.90;;;;;;5051722;28;20213;-77
2023/05/28 12:17:08;;;;;;;7.70;4.65;;;30.10;99.90;;;;;;5052513;28;20238;-76
2023/05/28 12:19:35;;;;;;;6.32;4.53;;;30.10;99.90;;;;;;5038211;28;20236;-72
2023/05/28 12:22:03;;;;;;;9.80;5.10;;;29.90;99.90;;;;;;5052478;28;20242;-73
2023/05/28 12:24:31;;;;;;;7.22;4.07;;;29.90;99.90;;;;;;5051912;28;20242;-76
2023/05/28 12:26:58;;;;;;;5.93;3.67;;;29.60;99.90;;;;;;5051777;28;20709;-73
2023/05/28 12:29:25;;;;;;;7.32;3.78;;;29.80;99.90;;;;;;5052093;28;20237;-79
2023/05/28 12:32:00;;;;;;;6.47;3.70;;;29.80;99.90;;;;;;5051727;28;20311;-76
2023/05/28 12:34:26;;;;;;;6.05;3.70;;;29.60;99.90;;;;;;5051855;28;20233;-72
2023/05/28 12:36:53;;;;;;;6.38;4.25;;;29.70;99.90;;;;;;5045883;28;20207;-77
2023/05/28 12:39:20;;;;;;;7.15;4.22;;;29.60;99.90;;;;;;5043793;28;20680;-75
2023/05/28 12:41:49;;;;;;;7.93;4.05;;;29.60;99.90;;;;;;5051206;28;20245;-73
2023/05/28 12:44:16;;;;;;;5.65;4.03;;;29.60;99.90;;;;;;5051887;28;20210;-75